sensor_id;sensor_type;location;lat;lon;timestamp;P1;durP1;ratioP1;P2;durP2;ratioP2
62673;SDS011;62269;47.594;17.638;2023-10-13T00:00:09;16.67;;;11.45;;
62673;SDS011;62269;47.594;17.638;2023-10-13T00:01:22;20.60;;;10.65;;
62673;SDS011;62269;47.594;17.638;2023-10-13T00:02:20;17.08;;;11.50;;
62673;SDS011;62269;47.594;17.638;2023-10-13T00:03:19;15.00;;;10.68;;
62673;SDS011;62269;47.594;17.638;2023-10-13T00:04:18;20.27;;;11.15;;
62673;SDS011;62269;47.594;17.638;2023-10-13T00:05:19;18.10;;;11.12;;
62673;SDS011;62269;47.594;17.638;2023-10-13T00:06:16;15.73;;;10.75;;
62673;SDS011;62269;47.594;17.638;2023-10-13T00:07:14;17.98;;;11.60;;
62673;SDS011;62269;47.594;17.638;2023-10-13T00:08:13;17.20;;;11.07;;
62673;SDS011;62269;47.594;17.638;2023-10-13T00:09:11;14.87;;;10.68;;
62673;SDS011;62269;47.594;17.638;2023-10-13T00:10:11;18.55;;;10.63;;
62673;SDS011;62269;47.594;17.638;2023-10-13T00:11:11;17.33;;;11.23;;
62673;SDS011;62269;47.594;17.638;2023-10-13T00:12:09;13.93;;;10.02;;
62673;SDS011;62269;47.594;17.638;2023-10-13T00:13:07;14.40;;;10.90;;
62673;SDS011;62269;47.594;17.638;2023-10-13T00:14:13;21.48;;;10.88;;
62673;SDS011;62269;47.594;17.638;2023-10-13T00:15:13;15.07;;;10.68;;
62673;SDS011;62269;47.594;17.638;2023-10-13T00:16:10;15.10;;;10.48;;
62673;SDS011;62269;47.594;17.638;2023-10-13T00:17:14;15.25;;;10.23;;
62673;SDS011;62269;47.594;17.638;2023-10-13T00:18:17;16.52;;;10.45;;
62673;SDS011;62269;47.594;17.638;2023-10-13T00:19:15;16.73;;;10.43;;
62673;SDS011;62269;47.594;17.638;2023-10-13T00:20:15;14.27;;;11.20;;
62673;SDS011;62269;47.594;17.638;2023-10-13T00:21:14;18.17;;;10.48;;
62673;SDS011;62269;47.594;17.638;2023-10-13T00:22:16;20.70;;;11.27;;
62673;SDS011;62269;47.594;17.638;2023-10-13T00:23:16;14.90;;;11.02;;
62673;SDS011;62269;47.594;17.638;2023-10-13T00:24:17;17.87;;;11.95;;
62673;SDS011;62269;47.594;17.638;2023-10-13T00:25:20;18.58;;;11.50;;
62673;SDS011;62269;47.594;17.638;2023-10-13T00:26:24;17.40;;;11.45;;
62673;SDS011;62269;47.594;17.638;2023-10-13T00:27:27;16.37;;;11.15;;
62673;SDS011;62269;47.594;17.638;2023-10-13T00:28:28;15.85;;;11.50;;
62673;SDS011;62269;47.594;17.638;2023-10-13T00:29:32;16.20;;;11.45;;
62673;SDS011;62269;47.594;17.638;2023-10-13T00:30:34;15.57;;;11.70;;
62673;SDS011;62269;47.594;17.638;2023-10-13T00:31:31;19.23;;;12.23;;
62673;SDS011;62269;47.594;17.638;2023-10-13T00:32:30;14.52;;;11.55;;
62673;SDS011;62269;47.594;17.638;2023-10-13T00:33:28;15.07;;;11.15;;
62673;SDS011;62269;47.594;17.638;2023-10-13T00:34:28;21.77;;;11.15;;
62673;SDS011;62269;47.594;17.638;2023-10-13T00:35:29;18.12;;;11.95;;
62673;SDS011;62269;47.594;17.638;2023-10-13T00:36:33;17.08;;;12.18;;
62673;SDS011;62269;47.594;17.638;2023-10-13T00:37:31;19.95;;;12.93;;
62673;SDS011;62269;47.594;17.638;2023-10-13T00:38:37;19.42;;;14.30;;
62673;SDS011;62269;47.594;17.638;2023-10-13T00:39:35;17.60;;;12.88;;
62673;SDS011;62269;47.594;17.638;2023-10-13T00:40:33;20.88;;;12.63;;
62673;SDS011;62269;47.594;17.638;2023-10-13T00:41:31;23.60;;;12.85;;
62673;SDS011;62269;47.594;17.638;2023-10-13T00:42:51;15.98;;;12.45;;
62673;SDS011;62269;47.594;17.638;2023-10-13T00:43:50;21.62;;;12.60;;
62673;SDS011;62269;47.594;17.638;2023-10-13T00:45:05;18.42;;;11.90;;
62673;SDS011;62269;47.594;17.638;2023-10-13T00:46:04;17.23;;;12.20;;
62673;SDS011;62269;47.594;17.638;2023-10-13T00:47:05;18.83;;;12.10;;
62673;SDS011;62269;47.594;17.638;2023-10-13T00:48:06;17.65;;;12.25;;
62673;SDS011;62269;47.594;17.638;2023-10-13T00:49:11;14.38;;;11.75;;
62673;SDS011;62269;47.594;17.638;2023-10-13T00:50:12;19.87;;;12.75;;
62673;SDS011;62269;47.594;17.638;2023-10-13T00:51:12;17.55;;;12.57;;
62673;SDS011;62269;47.594;17.638;2023-10-13T00:52:19;17.17;;;12.65;;
62673;SDS011;62269;47.594;17.638;2023-10-13T00:53:16;15.65;;;11.65;;
62673;SDS011;62269;47.594;17.638;2023-10-13T00:54:14;22.30;;;12.77;;
62673;SDS011;62269;47.594;17.638;2023-10-13T00:55:15;17.55;;;11.75;;
62673;SDS011;62269;47.594;17.638;2023-10-13T00:56:19;16.25;;;12.15;;
62673;SDS011;62269;47.594;17.638;2023-10-13T00:57:19;19.52;;;12.37;;
62673;SDS011;62269;47.594;17.638;2023-10-13T00:58:26;20.40;;;12.40;;
62673;SDS011;62269;47.594;17.638;2023-10-13T00:59:25;17.25;;;10.90;;
62673;SDS011;62269;47.594;17.638;2023-10-13T01:00:23;20.48;;;12.70;;
62673;SDS011;62269;47.594;17.638;2023-10-13T01:01:25;23.67;;;13.10;;
62673;SDS011;62269;47.594;17.638;2023-10-13T01:02:26;17.00;;;11.35;;
62673;SDS011;62269;47.594;17.638;2023-10-13T01:03:30;17.92;;;10.68;;
62673;SDS011;62269;47.594;17.638;2023-10-13T01:04:28;17.15;;;10.32;;
62673;SDS011;62269;47.594;17.638;2023-10-13T01:05:28;18.60;;;11.30;;
62673;SDS011;62269;47.594;17.638;2023-10-13T01:06:28;19.20;;;11.63;;
62673;SDS011;62269;47.594;17.638;2023-10-13T01:07:26;15.80;;;11.43;;
62673;SDS011;62269;47.594;17.638;2023-10-13T01:08:32;18.62;;;11.38;;
62673;SDS011;62269;47.594;17.638;2023-10-13T01:09:39;15.15;;;11.35;;
62673;SDS011;62269;47.594;17.638;2023-10-13T01:10:38;19.85;;;11.43;;
62673;SDS011;62269;47.594;17.638;2023-10-13T01:11:38;16.62;;;11.32;;
62673;SDS011;62269;47.594;17.638;2023-10-13T01:12:36;15.70;;;11.70;;
62673;SDS011;62269;47.594;17.638;2023-10-13T01:13:34;22.05;;;13.30;;
62673;SDS011;62269;47.594;17.638;2023-10-13T01:14:35;16.35;;;11.75;;
62673;SDS011;62269;47.594;17.638;2023-10-13T01:15:32;18.52;;;12.27;;
62673;SDS011;62269;47.594;17.638;2023-10-13T01:16:32;17.98;;;11.98;;
62673;SDS011;62269;47.594;17.638;2023-10-13T01:17:29;18.42;;;12.02;;
62673;SDS011;62269;47.594;17.638;2023-10-13T01:18:28;15.60;;;11.82;;
62673;SDS011;62269;47.594;17.638;2023-10-13T01:19:26;20.55;;;11.93;;
62673;SDS011;62269;47.594;17.638;2023-10-13T01:20:25;18.05;;;12.25;;
62673;SDS011;62269;47.594;17.638;2023-10-13T01:21:23;19.62;;;12.98;;
62673;SDS011;62269;47.594;17.638;2023-10-13T01:22:24;18.08;;;12.05;;
62673;SDS011;62269;47.594;17.638;2023-10-13T01:23:24;17.17;;;11.45;;
62673;SDS011;62269;47.594;17.638;2023-10-13T01:24:25;16.98;;;11.80;;
62673;SDS011;62269;47.594;17.638;2023-10-13T01:25:25;15.38;;;11.40;;
62673;SDS011;62269;47.594;17.638;2023-10-13T01:26:25;15.38;;;12.25;;
62673;SDS011;62269;47.594;17.638;2023-10-13T01:27:23;17.55;;;12.25;;
62673;SDS011;62269;47.594;17.638;2023-10-13T01:28:22;19.17;;;11.95;;
62673;SDS011;62269;47.594;17.638;2023-10-13T01:29:20;17.25;;;11.35;;
62673;SDS011;62269;47.594;17.638;2023-10-13T01:30:22;17.02;;;12.18;;
62673;SDS011;62269;47.594;17.638;2023-10-13T01:31:21;14.68;;;12.13;;
62673;SDS011;62269;47.594;17.638;2023-10-13T01:32:23;18.92;;;12.07;;
62673;SDS011;62269;47.594;17.638;2023-10-13T01:33:21;19.75;;;12.35;;
62673;SDS011;62269;47.594;17.638;2023-10-13T01:34:24;18.85;;;12.52;;
62673;SDS011;62269;47.594;17.638;2023-10-13T01:35:22;14.02;;;11.48;;
62673;SDS011;62269;47.594;17.638;2023-10-13T01:36:31;20.30;;;11.88;;
62673;SDS011;62269;47.594;17.638;2023-10-13T01:37:32;19.77;;;12.48;;
62673;SDS011;62269;47.594;17.638;2023-10-13T01:38:30;18.90;;;11.88;;
62673;SDS011;62269;47.594;17.638;2023-10-13T01:39:30;16.23;;;11.55;;
62673;SDS011;62269;47.594;17.638;2023-10-13T01:40:27;18.35;;;11.82;;
62673;SDS011;62269;47.594;17.638;2023-10-13T01:41:30;14.80;;;11.07;;
62673;SDS011;62269;47.594;17.638;2023-10-13T01:42:28;17.33;;;12.37;;
62673;SDS011;62269;47.594;17.638;2023-10-13T01:43:27;15.65;;;11.73;;
62673;SDS011;62269;47.594;17.638;2023-10-13T01:44:25;20.15;;;11.40;;
62673;SDS011;62269;47.594;17.638;2023-10-13T01:45:27;16.95;;;12.25;;
62673;SDS011;62269;47.594;17.638;2023-10-13T01:46:27;14.43;;;11.52;;
62673;SDS011;62269;47.594;17.638;2023-10-13T01:47:24;16.40;;;12.43;;
62673;SDS011;62269;47.594;17.638;2023-10-13T01:48:24;16.95;;;11.75;;
62673;SDS011;62269;47.594;17.638;2023-10-13T01:49:22;20.52;;;13.35;;
62673;SDS011;62269;47.594;17.638;2023-10-13T01:50:19;17.73;;;12.00;;
62673;SDS011;62269;47.594;17.638;2023-10-13T01:51:26;15.15;;;12.02;;
62673;SDS011;62269;47.594;17.638;2023-10-13T01:52:25;16.83;;;12.45;;
62673;SDS011;62269;47.594;17.638;2023-10-13T01:53:24;15.65;;;11.85;;
62673;SDS011;62269;47.594;17.638;2023-10-13T01:54:21;14.40;;;12.00;;
62673;SDS011;62269;47.594;17.638;2023-10-13T01:55:19;18.12;;;12.00;;
62673;SDS011;62269;47.594;17.638;2023-10-13T01:56:16;16.17;;;11.20;;
62673;SDS011;62269;47.594;17.638;2023-10-13T01:57:13;15.75;;;11.27;;
62673;SDS011;62269;47.594;17.638;2023-10-13T01:59:12;18.08;;;12.00;;
62673;SDS011;62269;47.594;17.638;2023-10-13T02:00:10;19.70;;;10.57;;
62673;SDS011;62269;47.594;17.638;2023-10-13T02:01:15;15.65;;;11.65;;
62673;SDS011;62269;47.594;17.638;2023-10-13T02:02:23;17.00;;;11.05;;
62673;SDS011;62269;47.594;17.638;2023-10-13T02:03:26;15.65;;;11.82;;
62673;SDS011;62269;47.594;17.638;2023-10-13T02:04:27;16.70;;;12.90;;
62673;SDS011;62269;47.594;17.638;2023-10-13T02:05:25;19.80;;;11.60;;
62673;SDS011;62269;47.594;17.638;2023-10-13T02:06:29;16.70;;;10.93;;
62673;SDS011;62269;47.594;17.638;2023-10-13T02:07:30;11.95;;;10.57;;
62673;SDS011;62269;47.594;17.638;2023-10-13T02:08:31;16.60;;;11.40;;
62673;SDS011;62269;47.594;17.638;2023-10-13T02:09:30;18.40;;;12.13;;
62673;SDS011;62269;47.594;17.638;2023-10-13T02:10:27;15.65;;;11.30;;
62673;SDS011;62269;47.594;17.638;2023-10-13T02:11:27;17.35;;;10.20;;
62673;SDS011;62269;47.594;17.638;2023-10-13T02:12:24;16.92;;;11.73;;
62673;SDS011;62269;47.594;17.638;2023-10-13T02:13:39;15.20;;;10.77;;
62673;SDS011;62269;47.594;17.638;2023-10-13T02:14:45;29.10;;;12.63;;
62673;SDS011;62269;47.594;17.638;2023-10-13T02:15:43;17.37;;;11.60;;
62673;SDS011;62269;47.594;17.638;2023-10-13T02:16:41;16.95;;;11.60;;
62673;SDS011;62269;47.594;17.638;2023-10-13T02:17:39;19.05;;;11.48;;
62673;SDS011;62269;47.594;17.638;2023-10-13T02:18:41;20.50;;;11.55;;
62673;SDS011;62269;47.594;17.638;2023-10-13T02:19:40;20.27;;;12.02;;
62673;SDS011;62269;47.594;17.638;2023-10-13T02:20:41;15.70;;;11.25;;
62673;SDS011;62269;47.594;17.638;2023-10-13T02:21:39;14.57;;;11.73;;
62673;SDS011;62269;47.594;17.638;2023-10-13T02:22:40;20.37;;;11.57;;
62673;SDS011;62269;47.594;17.638;2023-10-13T02:23:46;15.68;;;11.35;;
62673;SDS011;62269;47.594;17.638;2023-10-13T02:24:56;15.40;;;11.27;;
62673;SDS011;62269;47.594;17.638;2023-10-13T02:26:02;16.62;;;11.73;;
62673;SDS011;62269;47.594;17.638;2023-10-13T02:27:07;16.35;;;11.80;;
62673;SDS011;62269;47.594;17.638;2023-10-13T02:28:10;16.23;;;11.38;;
62673;SDS011;62269;47.594;17.638;2023-10-13T02:29:18;19.00;;;12.63;;
62673;SDS011;62269;47.594;17.638;2023-10-13T02:30:15;19.42;;;12.32;;
62673;SDS011;62269;47.594;17.638;2023-10-13T02:31:20;16.83;;;12.45;;
62673;SDS011;62269;47.594;17.638;2023-10-13T02:32:21;19.17;;;12.63;;
62673;SDS011;62269;47.594;17.638;2023-10-13T02:33:20;19.15;;;12.70;;
62673;SDS011;62269;47.594;17.638;2023-10-13T02:34:26;15.48;;;11.50;;
62673;SDS011;62269;47.594;17.638;2023-10-13T02:35:24;15.85;;;11.80;;
62673;SDS011;62269;47.594;17.638;2023-10-13T02:36:27;18.65;;;11.90;;
62673;SDS011;62269;47.594;17.638;2023-10-13T02:37:33;17.55;;;12.10;;
62673;SDS011;62269;47.594;17.638;2023-10-13T02:38:32;18.80;;;12.10;;
62673;SDS011;62269;47.594;17.638;2023-10-13T02:39:36;17.83;;;12.35;;
62673;SDS011;62269;47.594;17.638;2023-10-13T02:40:38;16.20;;;11.30;;
62673;SDS011;62269;47.594;17.638;2023-10-13T02:41:35;13.77;;;12.07;;
62673;SDS011;62269;47.594;17.638;2023-10-13T02:42:36;18.70;;;12.18;;
62673;SDS011;62269;47.594;17.638;2023-10-13T02:43:34;18.65;;;12.88;;
62673;SDS011;62269;47.594;17.638;2023-10-13T02:44:31;21.23;;;12.85;;
62673;SDS011;62269;47.594;17.638;2023-10-13T02:45:30;18.25;;;12.27;;
62673;SDS011;62269;47.594;17.638;2023-10-13T02:46:28;20.92;;;13.57;;
62673;SDS011;62269;47.594;17.638;2023-10-13T02:47:27;20.30;;;12.88;;
62673;SDS011;62269;47.594;17.638;2023-10-13T02:48:25;20.83;;;12.93;;
62673;SDS011;62269;47.594;17.638;2023-10-13T02:49:27;19.23;;;12.98;;
62673;SDS011;62269;47.594;17.638;2023-10-13T02:50:28;17.00;;;12.93;;
62673;SDS011;62269;47.594;17.638;2023-10-13T02:51:29;17.80;;;12.27;;
62673;SDS011;62269;47.594;17.638;2023-10-13T02:52:32;19.20;;;11.02;;
62673;SDS011;62269;47.594;17.638;2023-10-13T02:53:34;17.50;;;12.13;;
62673;SDS011;62269;47.594;17.638;2023-10-13T02:54:32;15.73;;;12.07;;
62673;SDS011;62269;47.594;17.638;2023-10-13T02:55:36;22.52;;;13.62;;
62673;SDS011;62269;47.594;17.638;2023-10-13T02:56:35;17.48;;;12.90;;
62673;SDS011;62269;47.594;17.638;2023-10-13T02:57:33;17.45;;;11.63;;
62673;SDS011;62269;47.594;17.638;2023-10-13T02:58:31;17.83;;;13.02;;
62673;SDS011;62269;47.594;17.638;2023-10-13T02:59:35;17.73;;;12.02;;
62673;SDS011;62269;47.594;17.638;2023-10-13T03:00:43;14.45;;;11.70;;
62673;SDS011;62269;47.594;17.638;2023-10-13T03:01:41;17.15;;;12.30;;
62673;SDS011;62269;47.594;17.638;2023-10-13T03:02:38;16.55;;;11.85;;
62673;SDS011;62269;47.594;17.638;2023-10-13T03:03:53;17.35;;;11.98;;
62673;SDS011;62269;47.594;17.638;2023-10-13T03:04:53;17.15;;;12.93;;
62673;SDS011;62269;47.594;17.638;2023-10-13T03:06:05;16.83;;;12.45;;
62673;SDS011;62269;47.594;17.638;2023-10-13T03:07:03;14.55;;;11.50;;
62673;SDS011;62269;47.594;17.638;2023-10-13T03:08:00;16.05;;;12.00;;
62673;SDS011;62269;47.594;17.638;2023-10-13T03:09:01;21.20;;;13.07;;
62673;SDS011;62269;47.594;17.638;2023-10-13T03:10:11;15.90;;;12.15;;
62673;SDS011;62269;47.594;17.638;2023-10-13T03:11:11;17.20;;;12.23;;
62673;SDS011;62269;47.594;17.638;2023-10-13T03:12:10;18.50;;;12.43;;
62673;SDS011;62269;47.594;17.638;2023-10-13T03:13:08;20.00;;;12.65;;
62673;SDS011;62269;47.594;17.638;2023-10-13T03:14:06;15.93;;;11.50;;
62673;SDS011;62269;47.594;17.638;2023-10-13T03:15:04;18.42;;;12.00;;
62673;SDS011;62269;47.594;17.638;2023-10-13T03:16:22;22.05;;;12.98;;
62673;SDS011;62269;47.594;17.638;2023-10-13T03:17:20;20.50;;;12.65;;
62673;SDS011;62269;47.594;17.638;2023-10-13T03:18:30;17.48;;;11.85;;
62673;SDS011;62269;47.594;17.638;2023-10-13T03:19:30;15.75;;;12.95;;
62673;SDS011;62269;47.594;17.638;2023-10-13T03:21:28;19.60;;;13.18;;
62673;SDS011;62269;47.594;17.638;2023-10-13T03:22:26;18.65;;;13.07;;
62673;SDS011;62269;47.594;17.638;2023-10-13T03:23:28;20.33;;;13.32;;
62673;SDS011;62269;47.594;17.638;2023-10-13T03:24:25;23.75;;;12.90;;
62673;SDS011;62269;47.594;17.638;2023-10-13T03:25:31;14.68;;;12.23;;
62673;SDS011;62269;47.594;17.638;2023-10-13T03:26:39;18.80;;;12.88;;
62673;SDS011;62269;47.594;17.638;2023-10-13T03:27:41;16.33;;;12.43;;
62673;SDS011;62269;47.594;17.638;2023-10-13T03:28:59;30.58;;;14.55;;
62673;SDS011;62269;47.594;17.638;2023-10-13T03:29:57;20.95;;;13.93;;
62673;SDS011;62269;47.594;17.638;2023-10-13T03:30:57;20.73;;;13.65;;
62673;SDS011;62269;47.594;17.638;2023-10-13T03:33:04;18.08;;;13.15;;
62673;SDS011;62269;47.594;17.638;2023-10-13T03:34:09;21.05;;;13.05;;
62673;SDS011;62269;47.594;17.638;2023-10-13T03:35:09;18.50;;;12.68;;
62673;SDS011;62269;47.594;17.638;2023-10-13T03:36:21;19.85;;;12.80;;
62673;SDS011;62269;47.594;17.638;2023-10-13T03:37:38;20.20;;;13.07;;
62673;SDS011;62269;47.594;17.638;2023-10-13T03:38:36;20.08;;;13.32;;
62673;SDS011;62269;47.594;17.638;2023-10-13T03:39:36;17.50;;;13.00;;
62673;SDS011;62269;47.594;17.638;2023-10-13T03:40:33;19.33;;;12.43;;
62673;SDS011;62269;47.594;17.638;2023-10-13T03:41:32;18.50;;;12.48;;
62673;SDS011;62269;47.594;17.638;2023-10-13T03:42:33;22.25;;;13.18;;
62673;SDS011;62269;47.594;17.638;2023-10-13T03:43:31;16.42;;;12.50;;
62673;SDS011;62269;47.594;17.638;2023-10-13T03:44:28;16.50;;;12.48;;
62673;SDS011;62269;47.594;17.638;2023-10-13T03:45:27;19.15;;;12.68;;
62673;SDS011;62269;47.594;17.638;2023-10-13T03:46:29;16.30;;;12.90;;
62673;SDS011;62269;47.594;17.638;2023-10-13T03:47:26;20.98;;;12.98;;
62673;SDS011;62269;47.594;17.638;2023-10-13T03:48:29;19.60;;;12.93;;
62673;SDS011;62269;47.594;17.638;2023-10-13T03:49:26;23.00;;;12.75;;
62673;SDS011;62269;47.594;17.638;2023-10-13T03:50:25;20.25;;;13.62;;
62673;SDS011;62269;47.594;17.638;2023-10-13T03:51:28;20.45;;;13.52;;
62673;SDS011;62269;47.594;17.638;2023-10-13T03:52:28;20.20;;;13.15;;
62673;SDS011;62269;47.594;17.638;2023-10-13T03:53:32;17.25;;;13.55;;
62673;SDS011;62269;47.594;17.638;2023-10-13T03:54:30;21.80;;;13.32;;
62673;SDS011;62269;47.594;17.638;2023-10-13T03:55:29;28.40;;;14.05;;
62673;SDS011;62269;47.594;17.638;2023-10-13T03:56:27;17.92;;;13.00;;
62673;SDS011;62269;47.594;17.638;2023-10-13T03:57:28;24.98;;;13.48;;
62673;SDS011;62269;47.594;17.638;2023-10-13T03:58:30;19.12;;;13.32;;
62673;SDS011;62269;47.594;17.638;2023-10-13T03:59:28;17.98;;;14.07;;
62673;SDS011;62269;47.594;17.638;2023-10-13T04:00:32;18.25;;;12.65;;
62673;SDS011;62269;47.594;17.638;2023-10-13T04:01:29;18.33;;;13.38;;
62673;SDS011;62269;47.594;17.638;2023-10-13T04:02:40;17.08;;;12.93;;
62673;SDS011;62269;47.594;17.638;2023-10-13T04:03:43;16.23;;;12.95;;
62673;SDS011;62269;47.594;17.638;2023-10-13T04:05:00;17.90;;;13.45;;
62673;SDS011;62269;47.594;17.638;2023-10-13T04:06:05;19.40;;;13.32;;
62673;SDS011;62269;47.594;17.638;2023-10-13T04:07:13;18.00;;;13.23;;
62673;SDS011;62269;47.594;17.638;2023-10-13T04:08:32;20.55;;;13.73;;
62673;SDS011;62269;47.594;17.638;2023-10-13T04:09:45;21.50;;;13.82;;
62673;SDS011;62269;47.594;17.638;2023-10-13T04:10:45;19.37;;;13.90;;
62673;SDS011;62269;47.594;17.638;2023-10-13T04:11:52;21.20;;;14.57;;
62673;SDS011;62269;47.594;17.638;2023-10-13T04:13:10;18.92;;;14.98;;
62673;SDS011;62269;47.594;17.638;2023-10-13T04:14:26;22.33;;;15.05;;
62673;SDS011;62269;47.594;17.638;2023-10-13T04:15:47;20.00;;;13.45;;
62673;SDS011;62269;47.594;17.638;2023-10-13T04:17:04;20.80;;;13.55;;
62673;SDS011;62269;47.594;17.638;2023-10-13T04:18:11;19.60;;;13.95;;
62673;SDS011;62269;47.594;17.638;2023-10-13T04:19:27;20.92;;;13.27;;
62673;SDS011;62269;47.594;17.638;2023-10-13T04:20:26;19.80;;;14.02;;
62673;SDS011;62269;47.594;17.638;2023-10-13T04:21:26;24.05;;;15.40;;
62673;SDS011;62269;47.594;17.638;2023-10-13T04:23:44;22.08;;;14.75;;
62673;SDS011;62269;47.594;17.638;2023-10-13T04:25:00;23.73;;;15.93;;
62673;SDS011;62269;47.594;17.638;2023-10-13T04:26:18;23.50;;;14.87;;
62673;SDS011;62269;47.594;17.638;2023-10-13T04:27:19;21.92;;;14.75;;
62673;SDS011;62269;47.594;17.638;2023-10-13T04:28:36;21.35;;;15.05;;
62673;SDS011;62269;47.594;17.638;2023-10-13T04:29:47;23.75;;;14.98;;
62673;SDS011;62269;47.594;17.638;2023-10-13T04:30:46;23.98;;;16.40;;
62673;SDS011;62269;47.594;17.638;2023-10-13T04:31:56;23.10;;;16.23;;
62673;SDS011;62269;47.594;17.638;2023-10-13T04:32:57;23.15;;;16.12;;
62673;SDS011;62269;47.594;17.638;2023-10-13T04:34:14;20.83;;;14.57;;
62673;SDS011;62269;47.594;17.638;2023-10-13T04:35:16;21.75;;;15.23;;
62673;SDS011;62269;47.594;17.638;2023-10-13T04:36:15;18.05;;;15.60;;
62673;SDS011;62269;47.594;17.638;2023-10-13T04:37:18;23.23;;;16.33;;
62673;SDS011;62269;47.594;17.638;2023-10-13T04:38:29;19.40;;;16.02;;
62673;SDS011;62269;47.594;17.638;2023-10-13T04:39:31;24.15;;;16.27;;
62673;SDS011;62269;47.594;17.638;2023-10-13T04:42:42;21.15;;;15.80;;
62673;SDS011;62269;47.594;17.638;2023-10-13T04:43:53;26.17;;;17.87;;
62673;SDS011;62269;47.594;17.638;2023-10-13T04:44:53;21.17;;;15.88;;
62673;SDS011;62269;47.594;17.638;2023-10-13T04:45:58;23.08;;;15.90;;
62673;SDS011;62269;47.594;17.638;2023-10-13T04:47:18;21.40;;;15.88;;
62673;SDS011;62269;47.594;17.638;2023-10-13T04:48:18;27.85;;;16.33;;
62673;SDS011;62269;47.594;17.638;2023-10-13T04:49:20;23.87;;;15.52;;
62673;SDS011;62269;47.594;17.638;2023-10-13T04:50:25;24.63;;;15.70;;
62673;SDS011;62269;47.594;17.638;2023-10-13T04:51:31;20.55;;;14.70;;
62673;SDS011;62269;47.594;17.638;2023-10-13T04:52:55;22.00;;;16.92;;
62673;SDS011;62269;47.594;17.638;2023-10-13T04:53:59;22.92;;;16.70;;
62673;SDS011;62269;47.594;17.638;2023-10-13T04:54:57;21.85;;;16.00;;
62673;SDS011;62269;47.594;17.638;2023-10-13T04:56:06;22.95;;;16.65;;
62673;SDS011;62269;47.594;17.638;2023-10-13T04:57:05;24.50;;;16.65;;
62673;SDS011;62269;47.594;17.638;2023-10-13T04:58:20;24.05;;;15.77;;
62673;SDS011;62269;47.594;17.638;2023-10-13T04:59:30;22.95;;;15.60;;
62673;SDS011;62269;47.594;17.638;2023-10-13T05:00:34;23.08;;;16.50;;
62673;SDS011;62269;47.594;17.638;2023-10-13T05:01:50;20.88;;;16.35;;
62673;SDS011;62269;47.594;17.638;2023-10-13T05:02:54;19.98;;;16.02;;
62673;SDS011;62269;47.594;17.638;2023-10-13T05:03:57;23.65;;;16.05;;
62673;SDS011;62269;47.594;17.638;2023-10-13T05:05:14;25.48;;;14.15;;
62673;SDS011;62269;47.594;17.638;2023-10-13T05:06:15;26.60;;;16.42;;
62673;SDS011;62269;47.594;17.638;2023-10-13T05:07:33;18.77;;;14.85;;
62673;SDS011;62269;47.594;17.638;2023-10-13T05:08:49;29.48;;;15.52;;
62673;SDS011;62269;47.594;17.638;2023-10-13T05:10:06;22.17;;;16.58;;
62673;SDS011;62269;47.594;17.638;2023-10-13T05:11:22;23.25;;;16.23;;
62673;SDS011;62269;47.594;17.638;2023-10-13T05:12:38;26.15;;;15.18;;
62673;SDS011;62269;47.594;17.638;2023-10-13T05:13:58;25.90;;;15.80;;
62673;SDS011;62269;47.594;17.638;2023-10-13T05:15:15;28.55;;;15.93;;
62673;SDS011;62269;47.594;17.638;2023-10-13T05:16:31;22.90;;;16.20;;
62673;SDS011;62269;47.594;17.638;2023-10-13T05:17:48;25.60;;;15.85;;
62673;SDS011;62269;47.594;17.638;2023-10-13T05:19:04;25.73;;;15.52;;
62673;SDS011;62269;47.594;17.638;2023-10-13T05:20:19;22.92;;;16.12;;
62673;SDS011;62269;47.594;17.638;2023-10-13T05:21:35;20.40;;;16.23;;
62673;SDS011;62269;47.594;17.638;2023-10-13T05:22:53;21.33;;;15.98;;
62673;SDS011;62269;47.594;17.638;2023-10-13T05:24:08;22.83;;;15.40;;
62673;SDS011;62269;47.594;17.638;2023-10-13T05:25:24;26.55;;;15.88;;
62673;SDS011;62269;47.594;17.638;2023-10-13T05:26:40;26.33;;;15.90;;
62673;SDS011;62269;47.594;17.638;2023-10-13T05:27:56;20.27;;;14.68;;
62673;SDS011;62269;47.594;17.638;2023-10-13T05:29:29;23.85;;;15.50;;
62673;SDS011;62269;47.594;17.638;2023-10-13T05:30:45;22.48;;;15.35;;
62673;SDS011;62269;47.594;17.638;2023-10-13T05:32:01;20.55;;;14.90;;
62673;SDS011;62269;47.594;17.638;2023-10-13T05:33:17;24.12;;;16.90;;
62673;SDS011;62269;47.594;17.638;2023-10-13T05:34:32;19.05;;;14.50;;
62673;SDS011;62269;47.594;17.638;2023-10-13T05:35:48;23.05;;;16.02;;
62673;SDS011;62269;47.594;17.638;2023-10-13T05:37:04;24.05;;;15.55;;
62673;SDS011;62269;47.594;17.638;2023-10-13T05:38:21;19.37;;;15.38;;
62673;SDS011;62269;47.594;17.638;2023-10-13T05:39:37;20.73;;;15.48;;
62673;SDS011;62269;47.594;17.638;2023-10-13T05:41:00;20.60;;;15.43;;
62673;SDS011;62269;47.594;17.638;2023-10-13T05:42:21;25.85;;;15.68;;
62673;SDS011;62269;47.594;17.638;2023-10-13T05:43:37;22.58;;;15.18;;
62673;SDS011;62269;47.594;17.638;2023-10-13T05:44:54;20.30;;;14.30;;
62673;SDS011;62269;47.594;17.638;2023-10-13T05:46:11;23.02;;;15.98;;
62673;SDS011;62269;47.594;17.638;2023-10-13T05:47:38;19.30;;;14.25;;
62673;SDS011;62269;47.594;17.638;2023-10-13T05:48:40;24.12;;;15.20;;
62673;SDS011;62269;47.594;17.638;2023-10-13T05:50:10;21.80;;;15.68;;
62673;SDS011;62269;47.594;17.638;2023-10-13T05:51:17;20.42;;;14.52;;
62673;SDS011;62269;47.594;17.638;2023-10-13T05:52:30;21.02;;;14.50;;
62673;SDS011;62269;47.594;17.638;2023-10-13T05:53:53;20.52;;;14.73;;
62673;SDS011;62269;47.594;17.638;2023-10-13T05:55:47;19.00;;;14.75;;
62673;SDS011;62269;47.594;17.638;2023-10-13T05:57:17;23.02;;;15.07;;
62673;SDS011;62269;47.594;17.638;2023-10-13T05:58:34;23.15;;;16.35;;
62673;SDS011;62269;47.594;17.638;2023-10-13T06:01:12;26.23;;;15.75;;
62673;SDS011;62269;47.594;17.638;2023-10-13T06:02:28;23.92;;;17.77;;
62673;SDS011;62269;47.594;17.638;2023-10-13T06:03:44;28.85;;;17.77;;
62673;SDS011;62269;47.594;17.638;2023-10-13T06:05:06;26.60;;;17.00;;
62673;SDS011;62269;47.594;17.638;2023-10-13T06:06:23;27.42;;;17.08;;
62673;SDS011;62269;47.594;17.638;2023-10-13T06:07:38;29.25;;;17.25;;
62673;SDS011;62269;47.594;17.638;2023-10-13T06:08:54;26.05;;;16.92;;
62673;SDS011;62269;47.594;17.638;2023-10-13T06:10:10;23.58;;;16.60;;
62673;SDS011;62269;47.594;17.638;2023-10-13T06:11:26;30.17;;;17.58;;
62673;SDS011;62269;47.594;17.638;2023-10-13T06:12:41;32.03;;;18.42;;
62673;SDS011;62269;47.594;17.638;2023-10-13T06:13:57;32.35;;;17.90;;
62673;SDS011;62269;47.594;17.638;2023-10-13T06:15:12;26.33;;;18.05;;
62673;SDS011;62269;47.594;17.638;2023-10-13T06:16:28;25.58;;;17.55;;
62673;SDS011;62269;47.594;17.638;2023-10-13T06:17:44;25.50;;;16.25;;
62673;SDS011;62269;47.594;17.638;2023-10-13T06:19:00;30.92;;;17.98;;
62673;SDS011;62269;47.594;17.638;2023-10-13T06:20:16;21.67;;;16.87;;
62673;SDS011;62269;47.594;17.638;2023-10-13T06:21:32;23.35;;;16.87;;